Langley AFB, Virginia
Current Conditions -  °F | °C
As of 4:58 AM on Tuesday 21 Oct 2014 (Local Time) from KLFI Reporting Station
Overcast Overcast  
Wind Chill: 59°   Ceiling: 10000
Heat Index: 59°   Visibility: 10mi
Dew Point: 59°   Wind: 7mph
Humidity: 99%   Direction: 200°SSW
Pressure: 29.89"   Gusts: NA
Location:  37.0868°N, 76.3631°W
Report Text: KLFI 210858Z AUTO 20006KT 10SM OVC100 15/15 A2989 RMK AO2 SLP129 T01520150 57019 $
Loading
Personal Weather Stations






























Interactive Weather Map
Tropical Storm Tracking
New forecast layout! Learn more

10-Day Weather Forecast

Advertisements
Track Severe Weather on mobile